Time;durP1;ratioP1;P1;durP2;ratioP2;P2;SDS_P1;SDS_P2;PMS_P1;PMS_P2;Temp;Humidity;BMP_temperature;BMP_pressure;BME280_temperature;BME280_humidity;BME280_pressure;Samples;Min_cycle;Max_cycle;Signal;HPM_P1;HPM_P2
2021/03/22 00:01:01;;;;;;;1.60;1.20;;;4.20;99.90;;;;;;5010077;28;20684;-76
2021/03/22 00:03:28;;;;;;;1.60;1.27;;;4.30;99.90;;;;;;5010275;28;20318;-77
2021/03/22 00:05:55;;;;;;;0.90;0.90;;;4.20;99.80;;;;;;5010332;28;20220;-77
2021/03/22 00:08:23;;;;;;;2.03;1.40;;;4.20;99.90;;;;;;5010108;28;20216;-78
2021/03/22 00:10:50;;;;;;;1.63;1.00;;;4.30;99.90;;;;;;5010156;28;20213;-79
2021/03/22 00:13:18;;;;;;;4.20;1.37;;;4.30;99.90;;;;;;5009913;28;20256;-76
2021/03/22 00:15:45;;;;;;;1.23;1.00;;;4.40;99.90;;;;;;5009652;28;20641;-76
2021/03/22 00:18:14;;;;;;;4.00;1.30;;;4.40;99.90;;;;;;5009752;28;20264;-76
2021/03/22 00:20:42;;;;;;;2.30;1.37;;;4.30;99.90;;;;;;5009042;28;20738;-76
2021/03/22 00:23:08;;;;;;;1.90;1.07;;;4.10;99.90;;;;;;5009729;28;20205;-76
2021/03/22 00:25:35;;;;;;;12.80;1.60;;;4.20;99.90;;;;;;5009088;28;20206;-76
2021/03/22 00:28:01;;;;;;;3.67;1.40;;;4.20;99.90;;;;;;5009977;28;20252;-79
2021/03/22 00:30:31;;;;;;;1.67;1.37;;;4.10;99.90;;;;;;5009686;28;20217;-79
2021/03/22 00:32:57;;;;;;;2.37;1.57;;;4.10;99.90;;;;;;5009629;28;20209;-79
2021/03/22 00:35:23;;;;;;;3.60;1.70;;;4.10;99.90;;;;;;5009896;28;20237;-78
2021/03/22 00:37:52;;;;;;;2.60;1.87;;;4.10;99.90;;;;;;5009076;28;20242;-77
2021/03/22 00:40:20;;;;;;;5.53;3.33;;;4.10;99.90;;;;;;5009502;28;20220;-77
2021/03/22 00:42:47;;;;;;;3.93;2.73;;;4.10;99.90;;;;;;5009394;28;20244;-78
2021/03/22 00:45:15;;;;;;;4.07;3.00;;;4.10;99.90;;;;;;5009295;28;20276;-76
2021/03/22 00:47:41;;;;;;;4.57;1.90;;;4.10;99.90;;;;;;5009367;28;20279;-77
2021/03/22 00:50:09;;;;;;;1.87;1.70;;;4.10;99.90;;;;;;5009172;28;20287;-76
2021/03/22 00:52:35;;;;;;;1.77;1.47;;;4.10;99.90;;;;;;5008977;28;20271;-77
2021/03/22 00:55:03;;;;;;;2.37;1.67;;;4.00;99.90;;;;;;5009232;28;20229;-78
2021/03/22 00:57:29;;;;;;;2.70;2.03;;;4.00;99.90;;;;;;5009251;28;20264;-77
2021/03/22 00:59:55;;;;;;;2.67;1.57;;;3.90;99.90;;;;;;5009133;28;20210;-77
2021/03/22 01:02:22;;;;;;;2.50;1.40;;;3.80;99.90;;;;;;5009188;28;20244;-77
2021/03/22 01:04:48;;;;;;;3.03;1.70;;;3.80;99.90;;;;;;5008766;28;20276;-77
2021/03/22 01:07:14;;;;;;;3.33;1.30;;;3.70;99.90;;;;;;5009196;28;20235;-77
2021/03/22 01:09:40;;;;;;;5.00;1.50;;;3.60;99.90;;;;;;5008560;28;20672;-77
2021/03/22 01:12:09;;;;;;;1.30;1.20;;;3.50;99.90;;;;;;5009056;28;20298;-77
2021/03/22 01:14:35;;;;;;;1.63;1.20;;;3.40;99.90;;;;;;5008805;28;20245;-77
2021/03/22 01:17:01;;;;;;;2.87;1.37;;;3.50;99.90;;;;;;5008742;28;20299;-77
2021/03/22 01:19:28;;;;;;;4.10;1.40;;;3.50;99.90;;;;;;5008835;28;20241;-77
2021/03/22 01:21:56;;;;;;;1.87;1.17;;;3.50;99.90;;;;;;5008964;28;20217;-77
2021/03/22 01:24:27;;;;;;;2.63;1.40;;;3.50;99.90;;;;;;5008656;28;20218;-77
2021/03/22 01:26:55;;;;;;;2.20;1.27;;;3.50;99.90;;;;;;5008887;28;20209;-78
2021/03/22 01:29:25;;;;;;;2.17;1.30;;;3.60;99.90;;;;;;5008876;28;20237;-77
2021/03/22 01:31:54;;;;;;;2.57;1.47;;;3.50;99.90;;;;;;5008206;28;20194;-77
2021/03/22 01:34:20;;;;;;;3.03;1.10;;;3.40;99.90;;;;;;5008681;28;20209;-77
2021/03/22 01:36:46;;;;;;;2.87;1.07;;;3.30;99.90;;;;;;5008554;28;20225;-77
2021/03/22 01:39:16;;;;;;;2.63;1.47;;;3.20;99.90;;;;;;5009155;28;20279;-78
2021/03/22 01:42:05;;;;;;;3.23;1.20;;;3.20;99.90;;;;;;5008617;28;20241;-78
2021/03/22 01:44:34;;;;;;;2.93;0.97;;;3.20;99.90;;;;;;5008688;28;20200;-78
2021/03/22 01:47:03;;;;;;;3.20;1.30;;;3.20;99.90;;;;;;5008712;28;20232;-78
2021/03/22 01:49:36;;;;;;;1.20;1.10;;;3.10;99.90;;;;;;5008658;28;20213;-78
2021/03/22 01:52:03;;;;;;;1.77;1.00;;;3.00;99.90;;;;;;5008541;28;20365;-78
2021/03/22 01:54:29;;;;;;;2.23;1.00;;;3.10;99.90;;;;;;5008481;28;20268;-78
2021/03/22 01:57:23;;;;;;;2.77;1.47;;;3.00;99.90;;;;;;5008332;28;20244;-76
2021/03/22 01:59:51;;;;;;;2.73;1.00;;;2.90;99.90;;;;;;5008505;28;20201;-76
2021/03/22 02:02:18;;;;;;;3.63;1.40;;;3.00;99.90;;;;;;5008529;28;20217;-77
2021/03/22 02:04:44;;;;;;;3.10;1.30;;;3.10;99.90;;;;;;5008073;28;20229;-76
2021/03/22 02:07:10;;;;;;;3.47;1.33;;;3.10;99.90;;;;;;5008237;28;20255;-76
2021/03/22 02:09:36;;;;;;;5.87;1.40;;;3.10;99.90;;;;;;5008529;28;20210;-77
2021/03/22 02:12:08;;;;;;;3.67;1.50;;;3.20;99.90;;;;;;5008188;28;20248;-76
2021/03/22 02:14:35;;;;;;;4.07;1.33;;;3.20;99.90;;;;;;5008103;28;20703;-76
2021/03/22 02:17:11;;;;;;;2.60;1.33;;;3.10;99.90;;;;;;5007847;28;20642;-76
2021/03/22 02:20:17;;;;;;;4.27;1.70;;;3.20;99.90;;;;;;5007915;28;20236;-77
2021/03/22 02:23:15;;;;;;;3.27;1.57;;;3.20;99.90;;;;;;5008185;28;20229;-76
2021/03/22 02:25:47;;;;;;;3.07;1.30;;;3.10;99.90;;;;;;4990309;28;20272;-77
2021/03/22 02:28:43;;;;;;;5.90;1.70;;;3.10;99.90;;;;;;5008053;28;20545;-76
2021/03/22 02:31:34;;;;;;;2.50;1.77;;;3.10;99.90;;;;;;5008165;28;20213;-76
2021/03/22 02:34:37;;;;;;;4.00;1.43;;;3.00;99.90;;;;;;5007981;28;20190;-76
2021/03/22 02:37:15;;;;;;;3.50;1.60;;;3.00;99.90;;;;;;5008063;28;20276;-77
2021/03/22 02:39:51;;;;;;;2.43;1.53;;;3.10;99.90;;;;;;5008290;28;20614;-76
2021/03/22 02:42:19;;;;;;;4.10;1.63;;;3.00;99.90;;;;;;5008159;28;20216;-76
2021/03/22 02:44:45;;;;;;;7.10;1.80;;;3.00;99.90;;;;;;5010848;28;20271;-76
2021/03/22 02:47:21;;;;;;;3.43;1.40;;;3.00;99.90;;;;;;5011308;28;20225;-76
2021/03/22 02:49:50;;;;;;;2.33;1.53;;;3.00;99.90;;;;;;5011394;28;20233;-76
2021/03/22 02:52:29;;;;;;;4.67;1.90;;;3.10;99.90;;;;;;5011185;28;20985;-76
2021/03/22 02:55:01;;;;;;;3.50;1.60;;;3.10;99.90;;;;;;5011238;28;20229;-77
2021/03/22 02:57:33;;;;;;;3.17;1.67;;;3.10;99.90;;;;;;5011137;28;20762;-79
2021/03/22 03:00:02;;;;;;;3.33;1.53;;;3.10;99.90;;;;;;5011390;28;20229;-78
2021/03/22 03:02:33;;;;;;;6.90;1.90;;;3.10;99.90;;;;;;5011350;28;20254;-78
2021/03/22 03:05:08;;;;;;;3.23;1.20;;;3.10;99.90;;;;;;5010725;28;20260;-79
2021/03/22 03:07:35;;;;;;;6.50;1.80;;;3.20;99.90;;;;;;5011164;28;20280;-79
2021/03/22 03:10:01;;;;;;;5.97;1.97;;;3.10;99.90;;;;;;5011087;28;20213;-80
2021/03/22 03:12:27;;;;;;;6.63;2.10;;;3.10;99.90;;;;;;5011295;28;20205;-79
2021/03/22 03:14:56;;;;;;;3.77;1.60;;;3.10;99.90;;;;;;5010873;28;20209;-79
2021/03/22 03:17:23;;;;;;;2.70;1.60;;;3.10;99.90;;;;;;5011024;28;20265;-80
2021/03/22 03:19:50;;;;;;;6.97;2.20;;;3.00;99.90;;;;;;5010443;28;20770;-79
2021/03/22 03:22:17;;;;;;;6.43;2.23;;;3.10;99.90;;;;;;5011121;28;20241;-78
2021/03/22 03:24:43;;;;;;;3.87;1.67;;;3.10;99.90;;;;;;5010908;28;20205;-78
2021/03/22 03:27:11;;;;;;;6.67;1.90;;;3.20;99.90;;;;;;5010846;28;20251;-76
2021/03/22 03:29:37;;;;;;;6.13;2.10;;;3.20;99.90;;;;;;5010674;28;20205;-79
2021/03/22 03:32:05;;;;;;;4.70;2.00;;;3.20;99.90;;;;;;5010785;28;20246;-78
2021/03/22 03:34:31;;;;;;;6.80;2.30;;;3.10;99.90;;;;;;5010670;28;20217;-79
2021/03/22 03:36:57;;;;;;;7.47;2.33;;;3.10;99.90;;;;;;5010617;28;20256;-80
2021/03/22 03:39:24;;;;;;;5.23;1.93;;;3.10;99.90;;;;;;5010736;28;20255;-78
2021/03/22 03:41:50;;;;;;;2.97;2.07;;;3.10;99.90;;;;;;5010384;28;20706;-78
2021/03/22 03:44:17;;;;;;;5.13;2.23;;;3.20;99.90;;;;;;5010853;28;20210;-78
2021/03/22 03:46:43;;;;;;;4.20;1.90;;;3.20;99.90;;;;;;5010491;28;20221;-78
2021/03/22 03:49:09;;;;;;;6.63;2.10;;;3.20;99.90;;;;;;5010386;28;20218;-78
2021/03/22 03:51:37;;;;;;;5.30;1.83;;;3.20;99.90;;;;;;5010457;28;20229;-78
2021/03/22 03:54:03;;;;;;;4.33;2.13;;;3.30;99.90;;;;;;5009698;28;20237;-78
2021/03/22 03:56:30;;;;;;;5.47;2.00;;;3.30;99.90;;;;;;5010443;28;20248;-78
2021/03/22 03:58:57;;;;;;;8.43;2.17;;;3.30;99.90;;;;;;5009980;28;20213;-80
2021/03/22 04:01:24;;;;;;;5.37;2.00;;;3.30;99.90;;;;;;5010351;28;20237;-80
2021/03/22 04:03:50;;;;;;;6.80;2.10;;;3.20;99.90;;;;;;5010100;28;20260;-77
2021/03/22 04:06:20;;;;;;;5.53;2.10;;;3.20;99.90;;;;;;4994111;28;20689;-76
2021/03/22 04:08:49;;;;;;;6.07;1.60;;;3.20;99.90;;;;;;4990980;28;20190;-78
2021/03/22 04:11:17;;;;;;;8.40;2.37;;;3.10;99.90;;;;;;4990326;28;20221;-76
2021/03/22 04:13:44;;;;;;;4.97;1.80;;;3.10;99.90;;;;;;5003755;28;20586;-76
2021/03/22 04:16:13;;;;;;;4.47;2.00;;;3.10;99.90;;;;;;5005858;28;20206;-77
2021/03/22 04:18:40;;;;;;;5.80;1.87;;;3.10;99.90;;;;;;5005500;28;20272;-76
2021/03/22 04:21:08;;;;;;;2.97;1.93;;;3.00;99.90;;;;;;5005882;28;20633;-76
2021/03/22 04:23:35;;;;;;;10.33;2.40;;;3.00;99.90;;;;;;5005298;28;20244;-78
2021/03/22 04:26:02;;;;;;;5.37;2.27;;;3.00;99.90;;;;;;5005675;28;20206;-71
2021/03/22 04:28:28;;;;;;;5.10;2.30;;;2.90;99.90;;;;;;5005492;28;20586;-71
2021/03/22 04:30:56;;;;;;;4.53;2.40;;;2.90;99.90;;;;;;5005574;28;20248;-77
2021/03/22 04:33:22;;;;;;;6.93;2.37;;;2.90;99.90;;;;;;5001935;28;20209;-76
2021/03/22 04:35:49;;;;;;;9.20;4.00;;;2.90;99.90;;;;;;4985845;28;20297;-76
2021/03/22 04:38:15;;;;;;;15.70;6.00;;;2.90;99.90;;;;;;4985939;28;20272;-77
2021/03/22 04:40:41;;;;;;;10.13;4.37;;;2.90;99.90;;;;;;4986028;28;20241;-77
2021/03/22 04:43:07;;;;;;;7.23;3.30;;;2.80;99.90;;;;;;4985851;28;20211;-77
2021/03/22 04:45:33;;;;;;;9.17;3.43;;;2.90;99.90;;;;;;4986025;28;20637;-78
2021/03/22 04:48:00;;;;;;;9.10;3.10;;;2.80;99.90;;;;;;4985617;28;20543;-77
2021/03/22 04:50:28;;;;;;;8.73;2.80;;;2.80;99.90;;;;;;4985959;28;20241;-77
2021/03/22 04:52:55;;;;;;;11.87;2.60;;;2.80;99.90;;;;;;4985633;28;20240;-77
2021/03/22 04:55:23;;;;;;;7.80;2.33;;;2.80;99.90;;;;;;4985824;28;20306;-76
2021/03/22 04:57:49;;;;;;;6.27;2.50;;;2.80;99.90;;;;;;4985329;28;20893;-77
2021/03/22 05:00:21;;;;;;;9.97;2.90;;;2.80;99.90;;;;;;5001245;28;20237;-76
2021/03/22 05:02:47;;;;;;;6.37;2.43;;;2.80;99.90;;;;;;4998280;28;20241;-77
2021/03/22 05:05:14;;;;;;;5.53;2.47;;;2.80;99.90;;;;;;5008675;28;20236;-77
2021/03/22 05:07:40;;;;;;;7.40;2.53;;;2.80;99.90;;;;;;5008243;28;20205;-78
2021/03/22 05:10:08;;;;;;;7.17;2.63;;;2.80;99.90;;;;;;5008311;28;20249;-77
2021/03/22 05:12:35;;;;;;;9.30;3.37;;;2.80;99.90;;;;;;5018438;28;20629;-77
2021/03/22 05:15:01;;;;;;;9.33;3.80;;;2.70;99.90;;;;;;5018553;28;20237;-77
2021/03/22 05:17:27;;;;;;;7.27;3.70;;;2.70;99.90;;;;;;5015778;28;20342;-78
2021/03/22 05:19:53;;;;;;;8.77;3.67;;;2.70;99.90;;;;;;5015521;28;20255;-77
2021/03/22 05:22:20;;;;;;;9.57;3.70;;;2.70;99.90;;;;;;5018525;28;20304;-77
2021/03/22 05:24:46;;;;;;;10.20;4.23;;;2.70;99.90;;;;;;5015493;28;20204;-78
2021/03/22 05:27:13;;;;;;;11.13;4.37;;;2.60;99.90;;;;;;5018366;28;20204;-77
2021/03/22 05:29:39;;;;;;;9.17;3.97;;;2.60;99.90;;;;;;5018414;28;20237;-78
2021/03/22 05:32:26;;;;;;;6.70;3.17;;;2.70;99.90;;;;;;5017503;28;20204;-77
2021/03/22 05:34:52;;;;;;;10.57;3.90;;;2.70;99.90;;;;;;5014280;28;20197;-78
2021/03/22 05:37:18;;;;;;;10.23;3.03;;;2.70;99.90;;;;;;5015929;28;20661;-78
2021/03/22 05:39:45;;;;;;;5.80;2.57;;;2.60;99.90;;;;;;5012925;28;20677;-77
2021/03/22 05:42:21;;;;;;;7.47;3.00;;;2.60;99.90;;;;;;5017792;28;20327;-77
2021/03/22 05:44:52;;;;;;;9.43;3.17;;;2.60;99.90;;;;;;5015964;28;20204;-77
2021/03/22 05:47:23;;;;;;;9.33;2.87;;;2.60;99.90;;;;;;5016735;28;20194;-77
2021/03/22 05:50:06;;;;;;;12.33;2.93;;;2.60;99.90;;;;;;5022101;28;20231;-78
2021/03/22 05:53:01;;;;;;;9.90;3.07;;;2.60;99.90;;;;;;5014519;28;20285;-75
2021/03/22 05:55:52;;;;;;;9.97;2.90;;;2.60;99.90;;;;;;5003054;28;20276;-75
2021/03/22 05:58:56;;;;;;;11.77;3.57;;;2.60;99.90;;;;;;5010922;28;20217;-77
2021/03/22 06:01:33;;;;;;;7.57;2.97;;;2.70;99.90;;;;;;5013893;28;20269;-77
2021/03/22 06:04:04;;;;;;;11.83;3.57;;;2.70;99.90;;;;;;5027644;28;20232;-78
2021/03/22 06:06:36;;;;;;;11.70;3.47;;;2.80;99.90;;;;;;5014939;28;20256;-78
2021/03/22 06:09:07;;;;;;;9.57;3.57;;;2.80;99.90;;;;;;5007721;28;20653;-78
2021/03/22 06:11:51;;;;;;;12.70;3.70;;;2.90;99.90;;;;;;5007596;28;20603;-78
2021/03/22 06:14:24;;;;;;;11.03;3.23;;;2.90;99.90;;;;;;5012754;28;20197;-78
2021/03/22 06:16:59;;;;;;;12.50;3.43;;;2.90;99.90;;;;;;5010296;28;20245;-78
2021/03/22 06:19:28;;;;;;;10.10;3.23;;;3.00;99.90;;;;;;5020996;28;20278;-78
2021/03/22 06:21:54;;;;;;;11.57;3.23;;;3.00;99.90;;;;;;5024893;28;20763;-78
2021/03/22 06:24:25;;;;;;;10.27;3.40;;;2.90;99.90;;;;;;5014622;28;20205;-78
2021/03/22 06:26:54;;;;;;;15.73;5.43;;;2.90;99.90;;;;;;5014350;28;20213;-77
2021/03/22 06:29:24;;;;;;;10.83;4.10;;;2.90;99.90;;;;;;5011008;28;20205;-78
2021/03/22 06:31:53;;;;;;;14.80;5.40;;;3.00;99.90;;;;;;5022331;28;20207;-78
2021/03/22 06:34:25;;;;;;;16.60;4.00;;;3.00;99.90;;;;;;5010031;28;20923;-78
2021/03/22 06:36:51;;;;;;;13.80;3.37;;;3.00;99.90;;;;;;5006392;28;20735;-78
2021/03/22 06:39:17;;;;;;;13.30;3.43;;;3.00;99.90;;;;;;5007369;28;20199;-78
2021/03/22 06:41:46;;;;;;;10.60;3.33;;;3.00;99.90;;;;;;5016523;28;20834;-78
2021/03/22 06:44:16;;;;;;;12.97;3.80;;;3.10;99.90;;;;;;5021965;28;20205;-79
2021/03/22 06:46:56;;;;;;;10.87;3.50;;;3.00;99.90;;;;;;5024621;28;20197;-79
2021/03/22 06:49:24;;;;;;;16.40;3.73;;;3.00;99.90;;;;;;5021985;28;20263;-79
2021/03/22 06:52:03;;;;;;;11.00;3.23;;;2.90;99.90;;;;;;5018997;28;20601;-79
2021/03/22 06:54:40;;;;;;;10.60;3.23;;;3.00;99.90;;;;;;5019158;28;20205;-78
2021/03/22 06:57:10;;;;;;;11.47;3.13;;;3.10;99.90;;;;;;5020598;28;20223;-78
2021/03/22 06:59:38;;;;;;;12.27;3.43;;;3.10;99.90;;;;;;5017120;28;20204;-78
2021/03/22 07:02:21;;;;;;;13.90;3.67;;;3.20;99.90;;;;;;5019798;28;20197;-78
2021/03/22 07:04:47;;;;;;;14.27;4.63;;;3.30;99.90;;;;;;5016780;28;20213;-77
2021/03/22 07:07:17;;;;;;;13.13;4.83;;;3.40;99.90;;;;;;5030732;28;20214;-77
2021/03/22 07:09:46;;;;;;;12.50;4.93;;;3.50;99.90;;;;;;5030610;28;20208;-77
2021/03/22 07:12:23;;;;;;;18.07;4.30;;;3.60;99.90;;;;;;5030235;28;20204;-77
2021/03/22 07:14:50;;;;;;;10.43;3.30;;;3.60;99.90;;;;;;5030374;28;20212;-77
2021/03/22 07:17:20;;;;;;;9.97;3.27;;;3.70;99.90;;;;;;5030764;28;20232;-78
2021/03/22 07:20:04;;;;;;;14.73;3.60;;;3.70;99.90;;;;;;5029934;28;20785;-77
2021/03/22 07:22:31;;;;;;;11.47;3.40;;;3.70;99.90;;;;;;5030567;28;20193;-78
2021/03/22 07:25:02;;;;;;;10.40;3.00;;;3.80;99.90;;;;;;5030490;28;20614;-77
2021/03/22 07:27:35;;;;;;;12.63;3.57;;;3.80;99.90;;;;;;5030522;28;20215;-77
2021/03/22 07:30:28;;;;;;;9.60;3.40;;;4.00;99.90;;;;;;5024803;28;20197;-78
2021/03/22 07:33:22;;;;;;;10.27;3.40;;;4.10;99.90;;;;;;5010112;28;20205;-78
2021/03/22 07:36:23;;;;;;;9.27;3.03;;;4.30;99.90;;;;;;5010732;28;20320;-78
2021/03/22 07:39:15;;;;;;;5.80;2.80;;;4.50;99.90;;;;;;5008671;28;20225;-78
2021/03/22 07:41:55;;;;;;;12.47;2.90;;;4.50;99.90;;;;;;5001041;28;20194;-76
2021/03/22 07:44:36;;;;;;;6.53;2.83;;;4.60;99.90;;;;;;5001118;28;20205;-78
2021/03/22 07:47:15;;;;;;;8.23;2.70;;;4.70;99.90;;;;;;5014356;28;20205;-78
2021/03/22 07:49:51;;;;;;;6.53;3.03;;;4.70;99.90;;;;;;5019145;28;20194;-78
2021/03/22 07:52:29;;;;;;;12.47;3.13;;;4.70;99.90;;;;;;5012357;28;20727;-78
2021/03/22 07:55:04;;;;;;;13.67;2.80;;;4.70;99.90;;;;;;5017739;28;20224;-78
2021/03/22 07:57:40;;;;;;;7.80;2.90;;;4.80;99.90;;;;;;5017973;28;20248;-77
2021/03/22 08:00:15;;;;;;;10.90;3.77;;;4.80;99.90;;;;;;5015522;28;20196;-78
2021/03/22 08:02:52;;;;;;;8.93;3.33;;;4.90;99.90;;;;;;5016444;28;20185;-78
2021/03/22 08:05:25;;;;;;;9.73;5.60;;;5.00;99.90;;;;;;5015200;28;20221;-77
2021/03/22 08:07:58;;;;;;;5.53;2.73;;;5.10;99.90;;;;;;5026617;28;20240;-77
2021/03/22 08:10:40;;;;;;;8.93;3.23;;;5.10;99.90;;;;;;5029291;28;20717;-78
2021/03/22 08:13:17;;;;;;;10.27;3.97;;;5.30;99.90;;;;;;5029364;28;20197;-77
2021/03/22 08:15:56;;;;;;;11.63;3.53;;;5.40;99.90;;;;;;4997548;28;20198;-77
2021/03/22 08:18:30;;;;;;;11.20;3.13;;;5.40;99.90;;;;;;5006162;28;20579;-77
2021/03/22 08:21:04;;;;;;;13.70;3.33;;;5.40;99.90;;;;;;4989769;28;20198;-78
2021/03/22 08:23:39;;;;;;;11.93;3.50;;;5.40;99.90;;;;;;4990054;28;20209;-77
2021/03/22 08:26:13;;;;;;;9.40;3.30;;;5.40;99.90;;;;;;5007625;28;20805;-78
2021/03/22 08:28:43;;;;;;;10.50;3.37;;;5.40;99.90;;;;;;5009412;28;20205;-77
2021/03/22 08:31:14;;;;;;;8.43;3.17;;;5.40;99.90;;;;;;5009369;28;20209;-78
2021/03/22 08:33:44;;;;;;;7.73;2.80;;;5.50;99.90;;;;;;5009561;28;20221;-77
2021/03/22 08:36:32;;;;;;;11.50;3.50;;;5.50;99.90;;;;;;5009176;28;20538;-77
2021/03/22 08:39:03;;;;;;;7.93;3.23;;;5.70;99.90;;;;;;5008909;28;20754;-77
2021/03/22 08:41:35;;;;;;;15.67;3.30;;;5.60;99.90;;;;;;5009273;28;20198;-77
2021/03/22 08:44:15;;;;;;;10.83;3.77;;;5.50;99.90;;;;;;5009123;28;20193;-77
2021/03/22 08:46:46;;;;;;;8.83;3.00;;;5.60;99.90;;;;;;5008968;28;20197;-77
2021/03/22 08:49:27;;;;;;;11.40;3.57;;;5.60;99.90;;;;;;5008659;28;20579;-77
2021/03/22 08:51:54;;;;;;;7.60;2.90;;;5.70;99.90;;;;;;4999317;28;20200;-78
2021/03/22 08:54:27;;;;;;;11.77;3.83;;;5.70;99.90;;;;;;5004498;28;20214;-73
2021/03/22 08:57:05;;;;;;;12.07;3.20;;;5.90;99.90;;;;;;4992485;28;20199;-72
2021/03/22 08:59:31;;;;;;;12.43;5.10;;;6.00;99.90;;;;;;4988828;28;20200;-72
2021/03/22 09:02:25;;;;;;;11.53;4.67;;;6.10;99.90;;;;;;4988760;28;20222;-72
2021/03/22 09:04:53;;;;;;;8.27;3.90;;;6.20;99.90;;;;;;4985996;28;20632;-72
2021/03/22 09:07:27;;;;;;;5.93;2.90;;;6.30;99.90;;;;;;4989311;28;20248;-76
2021/03/22 09:10:33;;;;;;;8.07;2.67;;;6.30;99.90;;;;;;4990322;28;20190;-76
2021/03/22 09:13:08;;;;;;;8.40;3.17;;;6.40;99.90;;;;;;4988676;28;20300;-75
2021/03/22 09:15:39;;;;;;;9.57;3.30;;;6.50;99.90;;;;;;4989156;28;20225;-74
2021/03/22 09:18:21;;;;;;;9.20;3.00;;;6.70;99.90;;;;;;4989037;28;20712;-76
2021/03/22 09:21:18;;;;;;;8.17;2.70;;;6.80;99.90;;;;;;4988317;28;20246;-75
2021/03/22 09:23:45;;;;;;;6.33;2.70;;;6.90;99.90;;;;;;4988731;28;20715;-78
2021/03/22 09:26:12;;;;;;;10.00;3.10;;;7.00;99.90;;;;;;5005701;28;20213;-76
2021/03/22 09:28:45;;;;;;;8.23;2.67;;;7.10;99.90;;;;;;5015699;28;20208;-76
2021/03/22 09:31:40;;;;;;;7.70;2.70;;;7.20;99.90;;;;;;5014383;28;20201;-76
2021/03/22 09:34:39;;;;;;;4.73;2.60;;;7.30;99.90;;;;;;5014839;28;20225;-76
2021/03/22 09:37:38;;;;;;;7.60;2.60;;;7.50;99.90;;;;;;4994806;28;20198;-76
2021/03/22 09:40:06;;;;;;;6.90;2.60;;;7.60;99.90;;;;;;4988561;28;20224;-77
2021/03/22 09:42:33;;;;;;;7.97;2.47;;;7.70;99.90;;;;;;4988635;28;20739;-76
2021/03/22 09:45:22;;;;;;;5.37;2.37;;;7.60;99.90;;;;;;4988944;28;20210;-76
2021/03/22 09:48:19;;;;;;;7.13;2.63;;;7.50;99.90;;;;;;4988517;28;20645;-76
2021/03/22 09:50:47;;;;;;;5.90;2.03;;;7.60;99.90;;;;;;5010161;28;20185;-77
2021/03/22 09:53:19;;;;;;;3.17;1.93;;;7.70;99.90;;;;;;5021616;28;20276;-77
2021/03/22 09:56:07;;;;;;;9.17;2.93;;;8.00;99.90;;;;;;5017901;28;20193;-77
2021/03/22 09:58:37;;;;;;;6.17;2.37;;;8.10;99.90;;;;;;5018586;28;20221;-77
2021/03/22 10:01:36;;;;;;;5.87;4.27;;;8.20;99.90;;;;;;5025885;28;20193;-77
2021/03/22 10:04:31;;;;;;;4.17;2.33;;;8.30;99.90;;;;;;5030531;28;20224;-76
2021/03/22 10:07:16;;;;;;;3.97;2.30;;;8.40;99.90;;;;;;5025458;28;20739;-77
2021/03/22 10:09:46;;;;;;;3.37;1.90;;;8.50;99.90;;;;;;5029128;28;20291;-78
2021/03/22 10:12:18;;;;;;;3.87;1.40;;;8.70;99.90;;;;;;5012069;28;20201;-78
2021/03/22 10:14:47;;;;;;;3.33;1.10;;;8.90;99.90;;;;;;5012375;28;20260;-77
2021/03/22 10:17:26;;;;;;;4.23;1.50;;;8.90;98.60;;;;;;5012018;28;20311;-77
2021/03/22 10:20:00;;;;;;;5.00;2.40;;;8.90;99.80;;;;;;5011706;28;20237;-77
2021/03/22 10:22:27;;;;;;;3.33;1.77;;;9.10;99.90;;;;;;4992235;28;20245;-77
2021/03/22 10:25:10;;;;;;;3.57;1.60;;;9.10;99.90;;;;;;5004683;28;20205;-77
2021/03/22 10:27:41;;;;;;;3.10;1.80;;;9.20;99.20;;;;;;5011987;28;20194;-77
2021/03/22 10:30:11;;;;;;;2.67;2.00;;;9.30;99.60;;;;;;5007204;28;20201;-77
2021/03/22 10:32:41;;;;;;;6.33;1.87;;;9.20;98.20;;;;;;5002734;28;20268;-73
2021/03/22 10:35:10;;;;;;;1.73;1.63;;;9.40;99.60;;;;;;5000917;28;20225;-73
2021/03/22 10:37:41;;;;;;;4.57;3.80;;;9.50;97.10;;;;;;5002027;28;20229;-77
2021/03/22 10:40:20;;;;;;;2.93;1.63;;;9.50;97.50;;;;;;5009514;28;20190;-77
2021/03/22 10:42:47;;;;;;;2.07;1.37;;;9.60;98.00;;;;;;5011256;28;20193;-77
2021/03/22 10:45:28;;;;;;;2.10;1.20;;;9.70;98.10;;;;;;5011394;28;20271;-77
2021/03/22 10:47:58;;;;;;;2.70;1.43;;;9.80;96.00;;;;;;5010831;28;20225;-77
2021/03/22 10:50:27;;;;;;;1.90;1.53;;;9.80;96.00;;;;;;5011449;28;20256;-76
2021/03/22 10:53:06;;;;;;;2.77;1.37;;;9.90;96.20;;;;;;5011193;28;20213;-76
2021/03/22 10:55:33;;;;;;;1.90;1.40;;;9.90;96.00;;;;;;5011860;28;20304;-77
2021/03/22 10:58:04;;;;;;;3.23;1.73;;;10.20;96.10;;;;;;5011146;28;20237;-76
2021/03/22 11:00:36;;;;;;;4.13;1.53;;;10.40;95.90;;;;;;5010886;28;20683;-77
2021/03/22 11:03:04;;;;;;;3.13;1.30;;;10.30;95.10;;;;;;5010613;28;20222;-76
2021/03/22 11:05:36;;;;;;;1.57;1.13;;;10.30;93.70;;;;;;5010392;28;20341;-77
2021/03/22 11:08:04;;;;;;;3.10;1.33;;;10.30;93.90;;;;;;5011065;28;20367;-76
2021/03/22 11:10:32;;;;;;;2.23;1.33;;;10.40;93.70;;;;;;5011233;28;20213;-76
2021/03/22 11:12:59;;;;;;;8.43;1.70;;;10.50;94.00;;;;;;5010767;28;20291;-77
2021/03/22 11:15:30;;;;;;;3.47;0.90;;;10.70;92.40;;;;;;5011094;28;20571;-76
2021/03/22 11:17:57;;;;;;;3.00;1.20;;;10.80;92.30;;;;;;5010699;28;20634;-76
2021/03/22 11:20:25;;;;;;;1.50;1.00;;;10.90;91.30;;;;;;5010272;28;20241;-76
2021/03/22 11:22:52;;;;;;;3.87;1.40;;;11.10;90.10;;;;;;5011009;28;20642;-75
2021/03/22 11:25:36;;;;;;;4.50;1.20;;;11.00;90.20;;;;;;5010949;28;20301;-76
2021/03/22 11:28:05;;;;;;;2.73;1.00;;;11.00;90.80;;;;;;5010603;28;20198;-76
2021/03/22 11:30:35;;;;;;;2.30;1.20;;;11.20;91.00;;;;;;5010710;28;20288;-77
2021/03/22 11:33:09;;;;;;;1.90;1.53;;;11.40;91.20;;;;;;5010528;28;20678;-77
2021/03/22 11:35:37;;;;;;;1.77;1.53;;;11.30;90.80;;;;;;5010137;28;20566;-76
2021/03/22 11:38:04;;;;;;;3.47;1.80;;;11.40;90.50;;;;;;5009876;28;20331;-77
2021/03/22 11:40:32;;;;;;;7.67;1.90;;;11.70;90.70;;;;;;5010235;28;20279;-76
2021/03/22 11:43:01;;;;;;;1.80;1.27;;;11.70;90.00;;;;;;5010424;28;20205;-77
2021/03/22 11:45:34;;;;;;;2.00;1.10;;;11.90;90.80;;;;;;5010387;28;20233;-76
2021/03/22 11:48:01;;;;;;;2.27;1.30;;;11.90;89.50;;;;;;5010182;28;20205;-76
2021/03/22 11:50:35;;;;;;;2.50;1.60;;;12.00;90.40;;;;;;5009979;28;20210;-76
2021/03/22 11:53:08;;;;;;;2.07;1.47;;;12.20;88.40;;;;;;5010185;28;20190;-76
2021/03/22 11:55:39;;;;;;;1.47;1.20;;;12.30;89.70;;;;;;5010081;28;20198;-76
2021/03/22 11:58:07;;;;;;;2.90;1.43;;;12.40;89.00;;;;;;5009918;28;20572;-76
2021/03/22 12:00:36;;;;;;;8.50;1.70;;;12.50;89.60;;;;;;5009604;28;20602;-77
2021/03/22 12:03:08;;;;;;;3.47;1.40;;;12.60;89.10;;;;;;5009728;28;20240;-77
2021/03/22 12:05:37;;;;;;;2.20;1.47;;;12.80;88.00;;;;;;5009599;28;20645;-76
2021/03/22 12:08:29;;;;;;;1.63;1.30;;;13.00;88.00;;;;;;5009348;28;20735;-75
2021/03/22 12:10:55;;;;;;;3.20;1.50;;;13.10;87.80;;;;;;5009805;28;20244;-76
2021/03/22 12:13:22;;;;;;;3.33;1.40;;;13.20;85.30;;;;;;5009802;28;20213;-75
2021/03/22 12:15:48;;;;;;;1.97;1.23;;;13.30;83.20;;;;;;5009570;28;20232;-76
2021/03/22 12:18:20;;;;;;;1.50;1.10;;;13.30;85.00;;;;;;5009637;28;20256;-76
2021/03/22 12:20:47;;;;;;;2.13;1.30;;;13.00;81.60;;;;;;5009321;28;20241;-76
2021/03/22 12:23:13;;;;;;;1.93;1.13;;;12.80;83.30;;;;;;5009735;28;20228;-75
2021/03/22 12:25:40;;;;;;;4.77;1.40;;;12.80;83.90;;;;;;5009240;28;20683;-75
2021/03/22 12:28:06;;;;;;;2.60;1.20;;;12.90;81.40;;;;;;5009400;28;20201;-75
2021/03/22 12:30:34;;;;;;;1.90;1.53;;;12.90;82.70;;;;;;5009643;28;20207;-76
2021/03/22 12:33:00;;;;;;;2.20;1.43;;;13.00;81.30;;;;;;5009332;28;20209;-76
2021/03/22 12:35:30;;;;;;;26.10;2.77;;;13.00;80.00;;;;;;5009268;28;20206;-76
2021/03/22 12:37:56;;;;;;;2.30;1.27;;;13.20;81.90;;;;;;5009449;28;20241;-76
2021/03/22 12:40:23;;;;;;;2.03;1.43;;;13.50;82.60;;;;;;5009254;28;20205;-76
2021/03/22 12:42:50;;;;;;;2.73;1.40;;;13.50;78.30;;;;;;5009349;28;20245;-76
2021/03/22 12:45:21;;;;;;;2.50;1.50;;;13.40;78.20;;;;;;5009256;28;20201;-76
2021/03/22 12:47:47;;;;;;;2.43;1.40;;;13.60;79.10;;;;;;5009376;28;20193;-76
2021/03/22 12:50:21;;;;;;;1.30;1.20;;;13.70;79.90;;;;;;5009205;28;20214;-76
2021/03/22 12:52:51;;;;;;;4.17;2.37;;;14.00;78.20;;;;;;5009107;28;20202;-75
2021/03/22 12:55:20;;;;;;;2.37;1.70;;;13.80;76.00;;;;;;5008668;28;20675;-76
2021/03/22 12:57:47;;;;;;;2.33;1.40;;;13.80;75.70;;;;;;5008889;28;20237;-76
2021/03/22 13:00:16;;;;;;;1.97;1.23;;;13.70;74.40;;;;;;5008923;28;20205;-76
2021/03/22 13:02:44;;;;;;;2.87;1.40;;;13.20;73.40;;;;;;5008902;28;20347;-76
2021/03/22 13:05:17;;;;;;;1.77;0.93;;;13.10;72.20;;;;;;5008503;28;20301;-75
2021/03/22 13:07:43;;;;;;;4.50;1.00;;;12.80;72.30;;;;;;5008695;28;20213;-76
2021/03/22 13:10:11;;;;;;;6.97;1.50;;;12.60;72.20;;;;;;5008631;28;20201;-76
2021/03/22 13:12:37;;;;;;;4.23;0.87;;;12.70;74.90;;;;;;5008625;28;20206;-76
2021/03/22 13:15:05;;;;;;;1.60;1.10;;;12.80;74.50;;;;;;5008845;28;20213;-76
2021/03/22 13:17:34;;;;;;;0.87;0.73;;;12.90;75.00;;;;;;5008376;28;20225;-76